Time;durP1;ratioP1;P1;durP2;ratioP2;P2;SDS_P1;SDS_P2;PMS_P1;PMS_P2;Temp;Humidity;BMP_temperature;BMP_pressure;BME280_temperature;BME280_humidity;BME280_pressure;Samples;Min_cycle;Max_cycle;Signal;HPM_P1;HPM_P2
2021/08/23 00:01:56;;;;;;;6.05;4.53;;;;;;;18.90;75.52;96538.06;1791834;78;21079;-81
2021/08/23 00:04:22;;;;;;;5.03;4.25;;;;;;;18.92;75.52;96535.99;1802813;78;21021;-82
2021/08/23 00:06:48;;;;;;;4.83;4.35;;;;;;;18.89;75.58;96527.25;1801545;78;21028;-81
2021/08/23 00:09:13;;;;;;;4.22;3.83;;;;;;;18.88;75.69;96525.64;1798652;78;20992;-81
2021/08/23 00:11:39;;;;;;;4.60;4.20;;;;;;;18.87;75.71;96516.95;1794020;78;21002;-81
2021/08/23 00:14:05;;;;;;;4.80;4.28;;;;;;;18.87;75.72;96520.89;1799549;78;20944;-81
2021/08/23 00:16:31;;;;;;;4.80;4.20;;;;;;;18.87;75.89;96516.12;1801904;78;20955;-81
2021/08/23 00:18:56;;;;;;;5.45;4.60;;;;;;;18.89;75.89;96515.39;1798425;78;21014;-81
2021/08/23 00:21:24;;;;;;;8.28;4.30;;;;;;;18.88;76.02;96518.55;1802245;78;21392;-81
2021/08/23 00:23:52;;;;;;;4.90;4.12;;;;;;;18.88;76.06;96517.23;1799398;78;20925;-81
2021/08/23 00:26:17;;;;;;;4.90;4.35;;;;;;;18.88;76.00;96515.91;1793915;78;20936;-81
2021/08/23 00:28:43;;;;;;;4.30;3.58;;;;;;;18.88;76.18;96521.18;1803060;78;20994;-81
2021/08/23 00:31:10;;;;;;;4.28;3.87;;;;;;;18.89;76.13;96526.73;1800756;78;21047;-81
2021/08/23 00:33:36;;;;;;;5.20;4.20;;;;;;;18.91;76.25;96521.23;1797911;78;21030;-81
2021/08/23 00:36:02;;;;;;;9.20;4.85;;;;;;;18.94;76.38;96521.28;1779322;78;20901;-81
2021/08/23 00:38:28;;;;;;;4.00;3.70;;;;;;;18.95;76.52;96528.95;1806112;78;21035;-81
2021/08/23 00:40:53;;;;;;;5.45;4.33;;;;;;;18.96;76.55;96526.59;1801000;78;21100;-82
2021/08/23 00:43:19;;;;;;;6.30;4.28;;;;;;;18.97;76.63;96527.39;1793886;78;20977;-82
2021/08/23 00:45:46;;;;;;;5.00;4.45;;;;;;;18.96;76.47;96529.23;1801686;78;20992;-81
2021/08/23 00:48:12;;;;;;;4.83;4.37;;;;;;;18.95;76.77;96526.83;1799779;78;20965;-81
2021/08/23 00:50:38;;;;;;;5.00;4.37;;;;;;;18.95;76.96;96530.27;1794797;78;20948;-82
2021/08/23 00:53:04;;;;;;;5.60;4.60;;;;;;;18.93;76.97;96538.11;1795562;78;21004;-81
2021/08/23 00:55:33;;;;;;;5.45;4.22;;;;;;;18.90;77.07;96543.33;1799925;78;20964;-81
2021/08/23 00:58:01;;;;;;;5.40;4.42;;;;;;;18.92;76.98;96540.46;1796901;78;21021;-81
2021/08/23 01:00:29;;;;;;;5.08;4.28;;;;;;;18.92;77.18;96537.83;1800656;78;21003;-81
2021/08/23 01:03:15;;;;;;;4.62;4.20;;;;;;;18.96;77.28;96535.81;1802134;78;20979;-81
2021/08/23 01:05:40;;;;;;;4.70;4.20;;;;;;;18.95;77.27;96541.31;1794457;78;20983;-81
2021/08/23 01:08:17;;;;;;;5.87;4.50;;;;;;;18.93;77.56;96541.55;1801114;78;20999;-82
2021/08/23 01:10:47;;;;;;;4.55;4.10;;;;;;;18.88;77.76;96539.61;1794568;78;20956;-81
2021/08/23 01:13:13;;;;;;;4.50;4.10;;;;;;;18.84;78.02;96532.37;1782622;78;20972;-81
2021/08/23 01:15:40;;;;;;;5.58;4.53;;;;;;;18.80;78.32;96533.36;1775098;78;21370;-81
2021/08/23 01:18:05;;;;;;;4.78;4.08;;;;;;;18.76;78.68;96526.16;1798973;78;20936;-81
2021/08/23 01:20:38;;;;;;;5.15;4.58;;;;;;;18.69;78.93;96527.57;1794277;78;20983;-81
2021/08/23 01:23:04;;;;;;;5.28;4.67;;;;;;;18.68;79.18;96529.12;1791142;78;21012;-81
2021/08/23 01:25:33;;;;;;;5.25;4.75;;;;;;;18.67;79.48;96523.57;1802376;78;21349;-81
2021/08/23 01:28:40;;;;;;;4.72;4.25;;;;;;;18.66;79.69;96527.23;1808913;78;21018;-81
2021/08/23 01:31:17;;;;;;;6.97;4.78;;;;;;;18.64;79.89;96519.57;1799496;78;21024;-81
2021/08/23 01:33:44;;;;;;;7.05;4.95;;;;;;;18.62;80.30;96518.17;1796123;78;21040;-80
2021/08/23 01:36:11;;;;;;;9.53;4.85;;;;;;;18.61;80.59;96509.48;1796763;78;20957;-80
2021/08/23 01:38:37;;;;;;;5.55;5.03;;;;;;;18.60;80.85;96511.83;1799490;78;20918;-81
2021/08/23 01:41:05;;;;;;;7.25;5.00;;;;;;;18.57;81.01;96502.56;1795013;78;21004;-81
2021/08/23 01:43:31;;;;;;;6.78;5.45;;;;;;;18.56;81.29;96510.17;1805892;78;21026;-80
2021/08/23 01:45:57;;;;;;;6.65;5.22;;;;;;;18.55;81.34;96501.19;1803835;78;21014;-80
2021/08/23 01:48:22;;;;;;;5.75;5.12;;;;;;;18.57;81.59;96498.61;1800602;78;21418;-81
2021/08/23 01:50:48;;;;;;;5.53;4.87;;;;;;;18.57;81.59;96496.50;1795473;78;21094;-81
2021/08/23 01:53:16;;;;;;;5.12;4.62;;;;;;;18.58;81.85;96492.83;1797955;78;21015;-81
2021/08/23 01:55:43;;;;;;;7.35;5.47;;;;;;;18.56;81.86;96487.80;1797011;77;20941;-80
2021/08/23 01:58:08;;;;;;;6.10;5.50;;;;;;;18.56;81.99;96483.86;1795462;78;20952;-80
2021/08/23 02:00:34;;;;;;;6.05;5.12;;;;;;;18.55;82.10;96482.26;1797914;78;20991;-80
2021/08/23 02:03:00;;;;;;;5.70;5.10;;;;;;;18.54;82.19;96480.63;1794238;78;20994;-81
2021/08/23 02:05:28;;;;;;;5.22;4.72;;;;;;;18.54;82.34;96475.88;1799651;78;21452;-80
2021/08/23 02:07:55;;;;;;;5.95;5.33;;;;;;;18.51;82.35;96475.03;1796216;78;20971;-81
2021/08/23 02:10:20;;;;;;;5.80;5.12;;;;;;;18.47;82.47;96469.43;1794048;78;20994;-80
2021/08/23 02:12:46;;;;;;;6.05;5.05;;;;;;;18.46;82.57;96466.52;1796798;78;21089;-80
2021/08/23 02:15:12;;;;;;;5.85;4.97;;;;;;;18.45;82.68;96458.86;1800185;78;21437;-80
2021/08/23 02:17:37;;;;;;;5.03;4.53;;;;;;;18.43;82.85;96461.72;1800156;78;20984;-80
2021/08/23 02:20:09;;;;;;;5.25;4.75;;;;;;;18.42;82.92;96457.48;1798461;78;21120;-80
2021/08/23 02:22:34;;;;;;;5.20;4.70;;;;;;;18.42;83.04;96453.55;1799271;78;20977;-80
2021/08/23 02:25:00;;;;;;;5.40;4.90;;;;;;;18.40;83.19;96449.03;1789611;78;21311;-81
2021/08/23 02:27:26;;;;;;;5.92;4.90;;;;;;;18.36;83.21;96449.69;1804447;78;20950;-80
2021/08/23 02:29:52;;;;;;;5.62;5.05;;;;;;;18.35;83.37;96450.72;1804395;78;21420;-80
2021/08/23 02:32:18;;;;;;;6.25;4.90;;;;;;;18.33;83.48;96450.16;1802180;78;21001;-81
2021/08/23 02:34:44;;;;;;;6.03;4.30;;;;;;;18.31;83.52;96445.12;1797256;78;21403;-81
2021/08/23 02:37:10;;;;;;;4.78;4.33;;;;;;;18.31;83.53;96445.12;1799834;78;20973;-81
2021/08/23 02:39:35;;;;;;;4.20;3.80;;;;;;;18.32;83.37;96444.09;1792379;77;21418;-80
2021/08/23 02:42:01;;;;;;;4.85;4.35;;;;;;;18.37;83.15;96460.50;1792805;78;20988;-81
2021/08/23 02:44:27;;;;;;;4.33;3.27;;;;;;;18.38;83.03;96452.38;1793945;78;21004;-80
2021/08/23 02:46:53;;;;;;;4.95;3.62;;;;;;;18.41;82.90;96456.41;1793415;78;20928;-80
2021/08/23 02:49:19;;;;;;;3.90;3.02;;;;;;;18.42;82.64;96452.73;1799053;78;21023;-80
2021/08/23 02:51:45;;;;;;;5.08;4.20;;;;;;;18.40;82.38;96452.97;1795758;78;21430;-80
2021/08/23 02:54:11;;;;;;;4.05;3.35;;;;;;;18.37;82.29;96457.87;1798820;78;20965;-80
2021/08/23 02:56:37;;;;;;;4.28;2.98;;;;;;;18.33;82.27;96452.27;1797149;78;20959;-80
2021/08/23 02:59:03;;;;;;;3.25;2.92;;;;;;;18.25;81.93;96457.37;1799554;78;21039;-80
2021/08/23 03:01:29;;;;;;;3.72;3.33;;;;;;;18.17;82.05;96451.63;1798967;77;21003;-80
2021/08/23 03:03:55;;;;;;;3.95;3.50;;;;;;;18.13;82.28;96451.30;1793822;78;21002;-80
2021/08/23 03:06:21;;;;;;;4.25;3.60;;;;;;;18.11;82.36;96455.18;1804440;78;20970;-80
2021/08/23 03:08:46;;;;;;;3.92;3.50;;;;;;;18.09;82.44;96458.04;1797366;78;21051;-80
2021/08/23 03:11:13;;;;;;;4.42;3.62;;;;;;;18.12;82.58;96464.67;1774705;79;21004;-80
2021/08/23 03:13:40;;;;;;;4.25;3.40;;;;;;;18.12;82.54;96464.16;1793221;78;20988;-80
2021/08/23 03:16:06;;;;;;;4.15;3.50;;;;;;;18.11;82.47;96463.87;1801869;78;20974;-80
2021/08/23 03:18:32;;;;;;;4.83;4.00;;;;;;;18.10;82.44;96462.78;1797883;78;21873;-80
2021/08/23 03:20:58;;;;;;;4.50;4.10;;;;;;;18.07;82.60;96467.98;1801031;78;21013;-80
2021/08/23 03:23:24;;;;;;;6.17;3.85;;;;;;;18.04;82.67;96468.92;1776784;80;21471;-81
2021/08/23 03:25:50;;;;;;;4.50;4.10;;;;;;;17.93;82.78;96469.21;1759515;80;20960;-80
2021/08/23 03:28:16;;;;;;;4.28;3.80;;;;;;;17.99;83.00;96473.05;1742569;82;21046;-80
2021/08/23 03:30:42;;;;;;;5.53;4.17;;;;;;;17.99;83.15;96476.19;1805339;78;21430;-80
2021/08/23 03:33:09;;;;;;;5.97;4.10;;;;;;;18.01;83.14;96475.44;1800184;78;20929;-80
2021/08/23 03:35:35;;;;;;;4.37;3.90;;;;;;;18.03;83.51;96479.16;1798128;78;20989;-80
2021/08/23 03:38:02;;;;;;;4.42;3.77;;;;;;;18.08;83.30;96481.94;1794264;78;20938;-80
2021/08/23 03:40:28;;;;;;;5.10;4.40;;;;;;;18.10;83.27;96493.02;1793892;78;20975;-80
2021/08/23 03:42:54;;;;;;;4.75;4.25;;;;;;;18.13;83.42;96492.56;1722447;81;21453;-80
2021/08/23 03:45:20;;;;;;;5.42;4.25;;;;;;;18.14;83.45;96495.48;1739106;81;20992;-80
2021/08/23 03:47:46;;;;;;;5.53;4.55;;;;;;;18.15;83.27;96490.50;1792005;78;21001;-80
2021/08/23 03:50:12;;;;;;;5.12;4.62;;;;;;;18.19;83.27;96503.48;1801179;78;21015;-80
2021/08/23 03:52:37;;;;;;;6.30;5.70;;;;;;;18.24;83.28;96502.31;1803687;78;20953;-81
2021/08/23 03:55:07;;;;;;;7.03;4.70;;;;;;;18.24;83.25;96500.99;1803551;78;20958;-80
2021/08/23 03:57:35;;;;;;;5.83;4.60;;;;;;;18.23;83.28;96504.66;1805570;78;21016;-80
2021/08/23 04:00:03;;;;;;;6.75;5.10;;;;;;;18.24;83.11;96516.77;1792664;78;21020;-80
2021/08/23 04:02:29;;;;;;;5.62;5.12;;;;;;;18.19;82.99;96514.80;1806629;78;21025;-80
2021/08/23 04:04:55;;;;;;;5.40;4.90;;;;;;;18.19;82.93;96521.38;1800279;78;21001;-80
2021/08/23 04:07:20;;;;;;;10.35;5.78;;;;;;;18.26;83.00;96527.86;1802808;78;21398;-80
2021/08/23 04:09:46;;;;;;;6.72;5.72;;;;;;;18.32;83.02;96521.69;1798708;78;20937;-80
2021/08/23 04:12:12;;;;;;;6.92;5.72;;;;;;;18.32;83.02;96532.21;1792289;78;21016;-80
2021/08/23 04:14:38;;;;;;;6.70;6.05;;;;;;;18.26;82.83;96524.72;1766913;80;21375;-80
2021/08/23 04:17:04;;;;;;;5.85;5.22;;;;;;;18.23;83.05;96529.12;1770741;80;20970;-80
2021/08/23 04:19:30;;;;;;;6.12;5.53;;;;;;;18.22;83.61;96531.47;1773867;80;21046;-80
2021/08/23 04:21:56;;;;;;;6.20;4.78;;;;;;;18.16;83.12;96528.92;1774424;80;21043;-80
2021/08/23 04:24:21;;;;;;;5.42;4.78;;;;;;;18.13;82.99;96528.06;1775440;80;21324;-80
2021/08/23 04:26:47;;;;;;;6.35;5.33;;;;;;;18.12;83.12;96534.35;1771994;80;20903;-80
2021/08/23 04:29:13;;;;;;;6.08;5.17;;;;;;;18.12;83.35;96535.67;1771186;80;20957;-81
2021/08/23 04:31:39;;;;;;;6.35;4.90;;;;;;;18.12;83.37;96540.41;1802519;78;21337;-80
2021/08/23 04:34:05;;;;;;;6.10;4.92;;;;;;;18.15;83.28;96532.58;1802809;78;21041;-80
2021/08/23 04:36:32;;;;;;;5.17;4.37;;;;;;;18.18;83.64;96540.81;1796856;78;21009;-80
2021/08/23 04:38:58;;;;;;;4.40;3.75;;;;;;;18.16;83.14;96539.44;1777438;78;20939;-80
2021/08/23 04:41:23;;;;;;;4.53;3.92;;;;;;;18.12;83.10;96534.35;1791861;78;20951;-80
2021/08/23 04:43:49;;;;;;;4.85;3.55;;;;;;;18.08;82.83;96541.09;1789338;78;21358;-80
2021/08/23 04:46:15;;;;;;;4.78;3.65;;;;;;;18.04;82.94;96541.23;1803353;78;20929;-80
2021/08/23 04:48:41;;;;;;;5.28;3.83;;;;;;;18.04;83.22;96546.48;1808637;78;21501;-81
2021/08/23 04:51:07;;;;;;;4.28;3.55;;;;;;;17.99;82.71;96550.59;1805669;78;21042;-80
2021/08/23 04:53:33;;;;;;;4.80;3.47;;;;;;;17.96;83.10;96551.56;1799037;78;21003;-80
2021/08/23 04:55:58;;;;;;;5.85;3.80;;;;;;;17.96;83.31;96547.63;1802719;78;20911;-80
2021/08/23 04:58:24;;;;;;;4.90;3.08;;;;;;;17.95;83.44;96559.17;1800301;78;20889;-80
2021/08/23 05:00:50;;;;;;;4.95;3.08;;;;;;;17.91;83.25;96560.12;1798140;78;20948;-80
2021/08/23 05:03:15;;;;;;;3.80;2.58;;;;;;;17.89;83.21;96564.78;1802591;78;20957;-81
2021/08/23 05:05:42;;;;;;;4.30;3.17;;;;;;;17.89;83.14;96570.04;1801308;78;21540;-81
2021/08/23 05:08:08;;;;;;;3.98;2.95;;;;;;;17.83;83.12;96560.94;1795417;78;20939;-81
2021/08/23 05:10:34;;;;;;;4.60;3.10;;;;;;;17.83;83.15;96570.94;1799218;78;21327;-80
2021/08/23 05:12:59;;;;;;;3.72;2.83;;;;;;;17.81;83.25;96576.94;1802165;78;21007;-81
2021/08/23 05:15:25;;;;;;;5.87;3.05;;;;;;;17.81;83.30;96578.77;1794352;78;20999;-81
2021/08/23 05:17:51;;;;;;;4.72;3.20;;;;;;;17.80;83.66;96579.79;1806249;78;21778;-81
2021/08/23 05:20:18;;;;;;;4.58;3.12;;;;;;;17.81;83.53;96581.39;1800558;78;20964;-80
2021/08/23 05:22:44;;;;;;;3.08;2.50;;;;;;;17.79;83.57;96582.94;1780437;78;21018;-81
2021/08/23 05:25:11;;;;;;;3.55;3.25;;;;;;;17.76;83.28;96585.20;1800214;78;21377;-81
2021/08/23 05:27:36;;;;;;;5.53;2.80;;;;;;;17.73;83.46;96588.25;1802449;78;20959;-81
2021/08/23 05:30:04;;;;;;;4.55;2.90;;;;;;;17.73;83.63;96587.73;1800880;78;21330;-81
2021/08/23 05:32:30;;;;;;;3.52;3.20;;;;;;;17.70;83.53;96589.50;1804037;78;21380;-81
2021/08/23 05:34:56;;;;;;;3.15;2.55;;;;;;;17.67;83.81;96592.03;1799952;78;20997;-81
2021/08/23 05:37:22;;;;;;;4.47;2.83;;;;;;;17.65;83.56;96591.97;1805657;78;20936;-81
2021/08/23 05:39:48;;;;;;;4.30;3.15;;;;;;;17.62;83.46;96595.05;1712220;80;21950;-81
2021/08/23 05:42:14;;;;;;;4.22;2.55;;;;;;;17.56;83.82;96592.77;1734909;80;20992;-81
2021/08/23 05:44:41;;;;;;;3.12;2.33;;;;;;;17.60;83.60;96597.89;1792316;78;21028;-81
2021/08/23 05:47:07;;;;;;;3.17;2.40;;;;;;;17.57;83.44;96597.03;1803813;78;20994;-81
2021/08/23 05:49:33;;;;;;;3.42;2.52;;;;;;;17.56;83.49;96591.97;1801312;77;21007;-81
2021/08/23 05:51:59;;;;;;;3.02;2.62;;;;;;;17.56;83.58;96591.97;1797522;78;21004;-81
2021/08/23 05:54:26;;;;;;;3.17;2.40;;;;;;;17.52;83.55;96593.44;1803663;78;21017;-81
2021/08/23 05:56:53;;;;;;;2.70;2.22;;;;;;;17.48;83.52;96600.96;1801852;78;20944;-81
2021/08/23 05:59:19;;;;;;;2.65;2.40;;;;;;;17.48;83.67;96593.59;1799372;78;20984;-81
2021/08/23 06:01:45;;;;;;;3.22;2.05;;;;;;;17.51;83.76;96595.77;1800222;78;20934;-81
2021/08/23 06:04:10;;;;;;;3.35;2.37;;;;;;;17.49;83.47;96594.69;1796447;78;21298;-81
2021/08/23 06:06:38;;;;;;;2.98;2.30;;;;;;;17.48;83.34;96594.91;1793106;78;20975;-81
2021/08/23 06:09:04;;;;;;;2.58;2.10;;;;;;;17.48;83.51;96598.84;1788933;78;20960;-81
2021/08/23 06:11:29;;;;;;;2.55;2.27;;;;;;;17.45;83.73;96586.16;1790277;78;20898;-81
2021/08/23 06:13:55;;;;;;;2.83;2.05;;;;;;;17.51;83.57;96596.58;1799842;78;20903;-81
2021/08/23 06:16:21;;;;;;;2.58;2.30;;;;;;;17.52;83.47;96597.38;1795822;79;20964;-81
2021/08/23 06:18:46;;;;;;;3.12;2.00;;;;;;;17.51;83.60;96596.58;1799739;78;20940;-81
2021/08/23 06:21:12;;;;;;;2.45;2.17;;;;;;;17.49;83.41;96604.39;1801756;78;20974;-81
2021/08/23 06:23:38;;;;;;;3.05;2.08;;;;;;;17.47;83.33;96601.98;1804967;78;21384;-81
2021/08/23 06:26:04;;;;;;;2.58;2.15;;;;;;;17.46;82.82;96604.83;1800538;78;20885;-81
2021/08/23 06:28:29;;;;;;;3.35;2.12;;;;;;;17.46;82.95;96605.63;1784883;79;20927;-80
2021/08/23 06:30:55;;;;;;;3.98;2.45;;;;;;;17.46;83.10;96603.01;1790556;78;21326;-81
2021/08/23 06:33:21;;;;;;;2.67;2.05;;;;;;;17.50;83.11;96604.67;1806017;77;20901;-82
2021/08/23 06:35:47;;;;;;;2.77;2.10;;;;;;;17.51;83.25;96607.59;1795692;78;20997;-81
2021/08/23 06:38:13;;;;;;;3.90;2.50;;;;;;;17.47;82.98;96604.61;1798462;78;21059;-81
2021/08/23 06:40:40;;;;;;;2.47;1.82;;;;;;;17.46;83.02;96600.89;1804697;78;21012;-81
2021/08/23 06:43:06;;;;;;;2.87;2.00;;;;;;;17.47;82.95;96598.55;1807372;78;20902;-81
2021/08/23 06:45:32;;;;;;;2.45;2.12;;;;;;;17.47;82.69;96603.81;1814914;78;21037;-81
2021/08/23 06:47:57;;;;;;;3.42;1.90;;;;;;;17.50;82.75;96603.36;1792063;78;21279;-81
2021/08/23 06:50:23;;;;;;;2.37;1.90;;;;;;;17.48;82.68;96604.90;1784087;78;20945;-81
2021/08/23 06:52:49;;;;;;;3.62;1.80;;;;;;;17.48;82.67;96604.90;1804329;78;20920;-81
2021/08/23 06:55:15;;;;;;;2.00;1.72;;;;;;;17.45;82.44;96603.23;1803816;78;21007;-81
2021/08/23 06:57:41;;;;;;;2.62;1.80;;;;;;;17.44;82.70;96605.56;1798878;78;21273;-81
2021/08/23 07:00:08;;;;;;;4.35;2.15;;;;;;;17.43;82.67;96605.28;1792281;78;20964;-80
2021/08/23 07:02:34;;;;;;;3.05;1.70;;;;;;;17.44;82.53;96610.82;1804179;78;21372;-81
2021/08/23 07:05:00;;;;;;;3.83;1.90;;;;;;;17.44;82.56;96601.11;1804266;78;21017;-81
2021/08/23 07:07:25;;;;;;;2.50;1.60;;;;;;;17.47;82.45;96599.36;1817422;78;20955;-81
2021/08/23 07:09:51;;;;;;;2.90;1.98;;;;;;;17.46;82.47;96601.69;1802402;78;21663;-81
2021/08/23 07:12:17;;;;;;;2.67;1.90;;;;;;;17.43;82.27;96602.14;1785238;79;20938;-80
2021/08/23 07:14:42;;;;;;;2.30;1.80;;;;;;;17.45;82.54;96597.98;1805332;78;21004;-81
2021/08/23 07:17:08;;;;;;;2.87;1.82;;;;;;;17.42;81.70;96602.36;1805393;78;20948;-81
2021/08/23 07:19:34;;;;;;;2.45;1.80;;;;;;;17.39;81.50;96601.75;1794090;78;21363;-80
2021/08/23 07:22:01;;;;;;;3.22;1.55;;;;;;;17.35;81.21;96605.04;1807339;78;20996;-81
2021/08/23 07:24:26;;;;;;;2.55;1.87;;;;;;;17.38;81.98;96601.97;1798959;77;21402;-81
2021/08/23 07:26:52;;;;;;;2.50;2.05;;;;;;;17.46;82.43;96606.95;1784696;78;21040;-81
2021/08/23 07:29:19;;;;;;;2.65;1.90;;;;;;;17.49;82.68;96605.19;1813292;78;21336;-81
2021/08/23 07:31:45;;;;;;;2.87;1.65;;;;;;;17.52;82.66;96604.75;1806014;78;21036;-80
2021/08/23 07:34:11;;;;;;;3.62;2.22;;;;;;;17.55;82.37;96604.81;1784957;78;20999;-80
2021/08/23 07:36:37;;;;;;;2.92;1.95;;;;;;;17.55;82.16;96608.24;1796082;78;20988;-81
2021/08/23 07:39:04;;;;;;;2.92;2.33;;;;;;;17.54;81.77;96609.27;1797069;78;21444;-81
2021/08/23 07:41:29;;;;;;;2.58;2.30;;;;;;;17.52;81.92;96606.57;1800890;78;20960;-81
2021/08/23 07:43:55;;;;;;;3.02;2.20;;;;;;;17.48;81.80;96604.90;1797460;77;20929;-81
2021/08/23 07:46:21;;;;;;;2.02;1.60;;;;;;;17.49;81.98;96603.08;1802738;78;21021;-81
2021/08/23 07:48:47;;;;;;;2.72;2.15;;;;;;;17.47;81.87;96601.18;1779335;79;21356;-81
2021/08/23 07:51:13;;;;;;;2.98;1.80;;;;;;;17.45;81.53;96604.03;1795508;78;20981;-81
2021/08/23 07:53:39;;;;;;;2.67;1.75;;;;;;;17.39;81.58;96601.75;1803279;78;21005;-81
2021/08/23 07:56:05;;;;;;;6.37;2.08;;;;;;;17.41;81.87;96598.93;1806977;77;21017;-81
2021/08/23 07:58:31;;;;;;;2.77;1.98;;;;;;;17.44;82.46;96600.31;1807688;78;21010;-81
2021/08/23 08:00:57;;;;;;;2.90;2.22;;;;;;;17.45;82.06;96601.91;1807482;78;21390;-81
2021/08/23 08:03:23;;;;;;;2.77;2.08;;;;;;;17.50;82.29;96600.73;1804118;78;20933;-81
2021/08/23 08:05:48;;;;;;;2.90;2.12;;;;;;;17.56;82.57;96599.84;1768395;80;20962;-81
2021/08/23 08:08:14;;;;;;;3.45;2.30;;;;;;;17.57;82.69;96601.45;1756746;79;21380;-80
2021/08/23 08:10:40;;;;;;;2.95;2.10;;;;;;;17.63;82.90;96602.70;1766260;80;20942;-81
2021/08/23 08:13:06;;;;;;;2.85;1.95;;;;;;;17.72;82.81;96595.34;1766967;80;20942;-81
2021/08/23 08:15:33;;;;;;;3.17;2.30;;;;;;;17.75;82.12;96603.31;1765449;80;21400;-80
2021/08/23 08:17:59;;;;;;;3.55;2.47;;;;;;;17.78;82.30;96595.78;1738008;81;20976;-80
2021/08/23 08:20:24;;;;;;;2.45;2.05;;;;;;;17.84;82.48;96597.52;1793140;77;20890;-81
2021/08/23 08:22:50;;;;;;;2.58;2.20;;;;;;;17.86;82.04;96599.92;1805086;78;21452;-80
2021/08/23 08:25:16;;;;;;;3.60;2.00;;;;;;;17.87;81.70;96601.01;1807088;78;20969;-80
2021/08/23 08:27:41;;;;;;;2.95;1.98;;;;;;;17.93;81.66;96603.28;1807261;78;20948;-80
2021/08/23 08:30:09;;;;;;;2.17;1.72;;;;;;;17.96;82.03;96603.63;1799930;77;21426;-81
2021/08/23 08:32:35;;;;;;;2.87;1.87;;;;;;;18.07;82.28;96602.08;1778473;78;21138;-80
2021/08/23 08:35:01;;;;;;;3.35;2.20;;;;;;;18.16;82.72;96599.92;1791115;78;21010;-80
2021/08/23 08:37:27;;;;;;;2.85;2.10;;;;;;;18.26;82.69;96604.14;1798249;78;20943;-80
2021/08/23 08:39:52;;;;;;;2.75;2.27;;;;;;;18.34;82.56;96599.86;1807935;78;20980;-80
2021/08/23 08:42:19;;;;;;;2.70;1.92;;;;;;;18.37;82.10;96598.09;1798616;78;20972;-80
2021/08/23 08:44:45;;;;;;;4.05;2.30;;;;;;;18.38;81.92;96589.17;1742648;80;20972;-80
2021/08/23 08:47:18;;;;;;;4.12;2.17;;;;;;;18.45;82.38;96589.09;1735254;81;20957;-80
2021/08/23 08:49:45;;;;;;;2.42;1.82;;;;;;;18.53;82.52;96592.69;1742392;81;20953;-80
2021/08/23 08:52:11;;;;;;;2.40;2.05;;;;;;;18.66;83.03;96595.66;1741733;81;21460;-80
2021/08/23 08:54:38;;;;;;;4.55;2.02;;;;;;;18.74;82.72;96597.98;1739277;81;21041;-80
2021/08/23 08:57:04;;;;;;;2.67;2.15;;;;;;;18.84;82.64;96587.66;1734543;82;21345;-80
2021/08/23 08:59:31;;;;;;;3.33;2.58;;;;;;;18.93;82.69;96586.30;1736698;81;21037;-80
2021/08/23 09:01:57;;;;;;;2.85;2.10;;;;;;;19.07;82.88;96591.63;1741265;81;21385;-80
2021/08/23 09:04:32;;;;;;;2.87;2.10;;;;;;;19.18;82.68;96583.41;1742851;81;21039;-80
2021/08/23 09:06:58;;;;;;;2.55;1.90;;;;;;;19.25;82.18;96581.98;1754988;81;21008;-80
2021/08/23 09:09:25;;;;;;;2.98;2.30;;;;;;;19.26;81.37;96576.48;1767956;80;20951;-80
2021/08/23 09:12:03;;;;;;;2.67;1.98;;;;;;;19.37;81.40;96576.19;1756713;80;20949;-80
2021/08/23 09:14:29;;;;;;;3.15;2.30;;;;;;;19.40;80.95;96568.62;1803578;78;20933;-80
2021/08/23 09:17:04;;;;;;;3.75;2.10;;;;;;;19.42;81.04;96575.77;1803303;78;21302;-80
2021/08/23 09:19:34;;;;;;;2.70;2.25;;;;;;;19.49;80.19;96574.31;1765719;80;20954;-80
2021/08/23 09:22:04;;;;;;;3.90;2.00;;;;;;;19.47;79.52;96569.27;1739265;82;21452;-80
2021/08/23 09:24:34;;;;;;;3.42;2.02;;;;;;;19.57;80.09;96573.99;1797775;78;20945;-80
2021/08/23 09:27:12;;;;;;;2.90;2.22;;;;;;;19.63;80.84;96580.16;1790595;78;20964;-80
2021/08/23 09:30:00;;;;;;;3.75;2.00;;;;;;;19.67;80.04;96578.64;1787059;78;20956;-80
2021/08/23 09:32:35;;;;;;;2.80;1.87;;;;;;;19.72;80.50;96573.49;1803436;77;21037;-80
2021/08/23 09:35:02;;;;;;;3.33;2.30;;;;;;;19.70;79.87;96579.00;1798563;78;21000;-80
2021/08/23 09:37:32;;;;;;;2.27;1.98;;;;;;;19.76;80.50;96586.48;1738775;80;21341;-80
2021/08/23 09:40:13;;;;;;;3.17;2.20;;;;;;;19.85;79.20;96585.58;1796948;77;20911;-80
2021/08/23 09:42:39;;;;;;;2.58;1.98;;;;;;;19.92;80.18;96586.25;1806635;78;20956;-80
2021/08/23 09:45:18;;;;;;;2.90;2.50;;;;;;;19.98;79.42;96586.62;1794280;78;20964;-80
2021/08/23 09:47:44;;;;;;;3.33;1.90;;;;;;;20.01;79.91;96585.66;1810074;78;20917;-80
2021/08/23 09:50:16;;;;;;;2.52;1.92;;;;;;;19.97;78.02;96578.42;1806260;78;20934;-80
2021/08/23 09:52:42;;;;;;;10.95;9.85;;;;;;;19.97;78.02;96578.42;1798180;78;20995;-81
2021/08/23 09:55:09;;;;;;;3.90;3.10;;;;;;;19.96;77.82;96592.13;1819237;78;20999;-80
2021/08/23 09:57:41;;;;;;;4.05;2.85;;;;;;;19.87;77.91;96596.20;1809093;78;20955;-80
2021/08/23 10:00:11;;;;;;;4.00;2.58;;;;;;;19.81;78.53;96586.57;1811576;78;21331;-80
2021/08/23 10:02:36;;;;;;;2.58;2.02;;;;;;;19.81;78.57;96585.77;1815536;77;20940;-80
2021/08/23 10:05:02;;;;;;;4.37;1.90;;;;;;;19.79;78.59;96586.00;1798700;78;21012;-80
2021/08/23 10:07:29;;;;;;;3.37;2.47;;;;;;;19.78;79.33;96586.53;1807616;77;21356;-80
2021/08/23 10:09:57;;;;;;;3.55;2.02;;;;;;;19.83;79.43;96587.65;1812298;78;20979;-80
2021/08/23 10:12:23;;;;;;;3.02;2.12;;;;;;;19.80;79.65;96586.29;1801442;78;20907;-80
2021/08/23 10:14:48;;;;;;;2.83;2.20;;;;;;;19.83;79.77;96579.74;1807232;78;21309;-80
2021/08/23 10:17:14;;;;;;;2.90;2.30;;;;;;;19.79;79.55;96572.82;1815159;78;20968;-80
2021/08/23 10:19:40;;;;;;;3.17;2.30;;;;;;;19.72;78.70;96572.17;1811545;78;20942;-80
2021/08/23 10:22:05;;;;;;;4.03;3.05;;;;;;;19.87;78.47;96573.78;1802112;77;21400;-80
2021/08/23 10:24:31;;;;;;;5.97;4.40;;;;;;;20.01;78.69;96561.09;1804815;77;20940;-80
2021/08/23 10:26:58;;;;;;;2.30;2.08;;;;;;;20.11;78.40;96557.84;1802190;78;20930;-80
2021/08/23 10:29:24;;;;;;;3.50;2.87;;;;;;;20.20;77.67;96551.95;1813779;78;21253;-80
2021/08/23 10:31:50;;;;;;;3.12;2.35;;;;;;;20.34;77.37;96555.89;1818846;77;21077;-80
2021/08/23 10:34:22;;;;;;;4.47;3.70;;;;;;;20.34;77.37;96555.89;1808280;78;21003;-80
2021/08/23 10:36:49;;;;;;;7.47;5.25;;;;;;;20.42;78.00;96555.23;1770404;79;20978;-80
2021/08/23 10:39:21;;;;;;;10.20;7.53;;;;;;;20.45;77.35;96558.19;1768196;80;21041;-80
2021/08/23 10:41:49;;;;;;;3.52;2.50;;;;;;;20.50;77.81;96556.97;1765064;80;20990;-80
2021/08/23 10:44:31;;;;;;;3.67;2.62;;;;;;;20.52;76.61;96562.00;1763013;79;21450;-80
2021/08/23 10:47:09;;;;;;;5.58;2.60;;;;;;;20.64;77.04;96554.78;1794909;78;20952;-79
2021/08/23 10:49:41;;;;;;;4.00;3.02;;;;;;;20.78;77.87;96556.05;1801651;78;20998;-80
2021/08/23 10:52:07;;;;;;;5.05;3.77;;;;;;;20.88;76.77;96551.45;1810127;78;21460;-80
2021/08/23 10:54:39;;;;;;;3.45;2.72;;;;;;;21.01;75.91;96546.35;1809751;78;20935;-80
2021/08/23 10:57:09;;;;;;;3.83;2.90;;;;;;;21.09;75.47;96554.64;1802963;78;21020;-80
2021/08/23 10:59:45;;;;;;;3.15;2.40;;;;;;;21.39;75.50;96552.16;1807556;78;20953;-80
2021/08/23 11:02:31;;;;;;;4.67;4.28;;;;;;;21.30;73.72;96546.48;1813337;78;20980;-80
2021/08/23 11:05:14;;;;;;;5.60;3.70;;;;;;;21.10;74.16;96546.19;1804419;78;20979;-80
2021/08/23 11:07:42;;;;;;;3.80;2.98;;;;;;;20.91;75.35;96546.48;1803589;78;20984;-80
2021/08/23 11:10:15;;;;;;;3.08;2.40;;;;;;;20.78;74.83;96540.20;1772254;80;20976;-80
2021/08/23 11:12:47;;;;;;;3.20;2.27;;;;;;;20.63;75.23;96545.26;1769126;79;20938;-80
2021/08/23 11:15:29;;;;;;;3.98;2.75;;;;;;;20.55;75.00;96545.67;1769262;80;21078;-80
2021/08/23 11:18:03;;;;;;;3.85;2.67;;;;;;;20.48;74.86;96552.42;1738169;80;20979;-80
2021/08/23 11:20:33;;;;;;;3.90;2.67;;;;;;;20.44;75.05;96550.51;1767648;79;20976;-80
2021/08/23 11:23:02;;;;;;;3.52;2.50;;;;;;;20.46;76.05;96552.38;1811485;78;21007;-80
2021/08/23 11:25:49;;;;;;;3.52;2.30;;;;;;;20.47;75.66;96550.82;1812306;78;21001;-80
2021/08/23 11:28:18;;;;;;;2.60;2.40;;;;;;;20.52;75.69;96544.84;1814784;78;21263;-80
2021/08/23 11:30:51;;;;;;;2.98;2.22;;;;;;;20.67;75.59;96545.08;1809952;78;21351;-80
2021/08/23 11:33:34;;;;;;;3.10;2.30;;;;;;;20.74;74.89;96540.42;1813262;78;20961;-80
2021/08/23 11:35:59;;;;;;;4.22;2.72;;;;;;;20.83;75.75;96544.78;1806113;78;21438;-80